sensor_id;sensor_type;location;lat;lon;timestamp;P1;durP1;ratioP1;P2;durP2;ratioP2
64875;SDS011;51369;49.862;9.908;2024-01-07T00:00:58;17.38;;;9.98;;
64875;SDS011;51369;49.862;9.908;2024-01-07T00:03:23;19.33;;;9.95;;
64875;SDS011;51369;49.862;9.908;2024-01-07T00:05:48;22.15;;;10.27;;
64875;SDS011;51369;49.862;9.908;2024-01-07T00:08:14;17.52;;;10.95;;
64875;SDS011;51369;49.862;9.908;2024-01-07T00:10:39;18.88;;;10.63;;
64875;SDS011;51369;49.862;9.908;2024-01-07T00:13:04;20.00;;;10.23;;
64875;SDS011;51369;49.862;9.908;2024-01-07T00:15:30;19.08;;;10.45;;
64875;SDS011;51369;49.862;9.908;2024-01-07T00:17:56;19.45;;;11.68;;
64875;SDS011;51369;49.862;9.908;2024-01-07T00:20:22;19.65;;;11.02;;
64875;SDS011;51369;49.862;9.908;2024-01-07T00:22:47;16.13;;;9.70;;
64875;SDS011;51369;49.862;9.908;2024-01-07T00:25:13;17.63;;;10.10;;
64875;SDS011;51369;49.862;9.908;2024-01-07T00:27:38;21.92;;;10.18;;
64875;SDS011;51369;49.862;9.908;2024-01-07T00:30:04;20.95;;;10.90;;
64875;SDS011;51369;49.862;9.908;2024-01-07T00:32:30;15.18;;;9.55;;
64875;SDS011;51369;49.862;9.908;2024-01-07T00:34:55;12.40;;;8.68;;
64875;SDS011;51369;49.862;9.908;2024-01-07T00:37:20;14.30;;;9.10;;
64875;SDS011;51369;49.862;9.908;2024-01-07T00:39:46;14.93;;;9.18;;
64875;SDS011;51369;49.862;9.908;2024-01-07T00:42:11;16.95;;;8.93;;
64875;SDS011;51369;49.862;9.908;2024-01-07T00:44:37;18.02;;;10.00;;
64875;SDS011;51369;49.862;9.908;2024-01-07T00:47:02;15.45;;;8.77;;
64875;SDS011;51369;49.862;9.908;2024-01-07T00:49:28;15.00;;;8.02;;
64875;SDS011;51369;49.862;9.908;2024-01-07T00:51:53;16.63;;;9.40;;
64875;SDS011;51369;49.862;9.908;2024-01-07T00:54:18;13.82;;;9.00;;
64875;SDS011;51369;49.862;9.908;2024-01-07T00:56:44;21.17;;;9.93;;
64875;SDS011;51369;49.862;9.908;2024-01-07T00:59:10;18.33;;;8.65;;
64875;SDS011;51369;49.862;9.908;2024-01-07T01:01:35;14.73;;;9.25;;
64875;SDS011;51369;49.862;9.908;2024-01-07T01:04:01;11.70;;;8.05;;
64875;SDS011;51369;49.862;9.908;2024-01-07T01:06:27;13.57;;;7.65;;
64875;SDS011;51369;49.862;9.908;2024-01-07T01:08:52;14.70;;;8.80;;
64875;SDS011;51369;49.862;9.908;2024-01-07T01:11:17;13.20;;;8.40;;
64875;SDS011;51369;49.862;9.908;2024-01-07T01:13:43;12.10;;;7.45;;
64875;SDS011;51369;49.862;9.908;2024-01-07T01:16:08;12.50;;;7.47;;
64875;SDS011;51369;49.862;9.908;2024-01-07T01:18:33;11.98;;;7.82;;
64875;SDS011;51369;49.862;9.908;2024-01-07T01:20:59;12.63;;;7.78;;
64875;SDS011;51369;49.862;9.908;2024-01-07T01:23:24;9.90;;;7.20;;
64875;SDS011;51369;49.862;9.908;2024-01-07T01:25:50;13.63;;;7.72;;
64875;SDS011;51369;49.862;9.908;2024-01-07T01:28:15;13.90;;;8.63;;
64875;SDS011;51369;49.862;9.908;2024-01-07T01:30:40;13.48;;;8.10;;
64875;SDS011;51369;49.862;9.908;2024-01-07T01:33:06;10.88;;;6.53;;
64875;SDS011;51369;49.862;9.908;2024-01-07T01:35:31;13.48;;;8.77;;
64875;SDS011;51369;49.862;9.908;2024-01-07T01:37:57;12.50;;;7.82;;
64875;SDS011;51369;49.862;9.908;2024-01-07T01:40:22;13.68;;;8.45;;
64875;SDS011;51369;49.862;9.908;2024-01-07T01:42:47;14.27;;;8.30;;
64875;SDS011;51369;49.862;9.908;2024-01-07T01:45:13;14.02;;;8.35;;
64875;SDS011;51369;49.862;9.908;2024-01-07T01:47:39;15.32;;;8.30;;
64875;SDS011;51369;49.862;9.908;2024-01-07T01:50:06;18.70;;;9.70;;
64875;SDS011;51369;49.862;9.908;2024-01-07T01:52:32;14.65;;;8.90;;
64875;SDS011;51369;49.862;9.908;2024-01-07T01:54:57;16.05;;;9.60;;
64875;SDS011;51369;49.862;9.908;2024-01-07T01:57:24;15.80;;;9.68;;
64875;SDS011;51369;49.862;9.908;2024-01-07T02:00:01;17.98;;;10.40;;
64875;SDS011;51369;49.862;9.908;2024-01-07T02:02:30;20.20;;;10.25;;
64875;SDS011;51369;49.862;9.908;2024-01-07T02:04:59;20.17;;;9.73;;
64875;SDS011;51369;49.862;9.908;2024-01-07T02:07:28;20.35;;;11.40;;
64875;SDS011;51369;49.862;9.908;2024-01-07T02:09:57;15.10;;;9.32;;
64875;SDS011;51369;49.862;9.908;2024-01-07T02:12:23;17.88;;;10.43;;
64875;SDS011;51369;49.862;9.908;2024-01-07T02:14:48;15.73;;;10.25;;
64875;SDS011;51369;49.862;9.908;2024-01-07T02:17:14;20.85;;;10.68;;
64875;SDS011;51369;49.862;9.908;2024-01-07T02:19:40;22.02;;;10.98;;
64875;SDS011;51369;49.862;9.908;2024-01-07T02:22:05;16.55;;;10.02;;
64875;SDS011;51369;49.862;9.908;2024-01-07T02:24:30;23.17;;;11.05;;
64875;SDS011;51369;49.862;9.908;2024-01-07T02:26:56;19.58;;;10.23;;
64875;SDS011;51369;49.862;9.908;2024-01-07T02:29:22;18.10;;;10.65;;
64875;SDS011;51369;49.862;9.908;2024-01-07T02:31:47;18.42;;;9.73;;
64875;SDS011;51369;49.862;9.908;2024-01-07T02:34:13;16.67;;;9.80;;
64875;SDS011;51369;49.862;9.908;2024-01-07T02:36:38;15.27;;;9.05;;
64875;SDS011;51369;49.862;9.908;2024-01-07T02:39:03;19.10;;;10.38;;
64875;SDS011;51369;49.862;9.908;2024-01-07T02:41:29;18.08;;;10.23;;
64875;SDS011;51369;49.862;9.908;2024-01-07T02:43:54;15.55;;;9.45;;
64875;SDS011;51369;49.862;9.908;2024-01-07T02:46:20;13.52;;;9.07;;
64875;SDS011;51369;49.862;9.908;2024-01-07T02:48:46;15.20;;;9.07;;
64875;SDS011;51369;49.862;9.908;2024-01-07T02:51:11;19.98;;;9.25;;
64875;SDS011;51369;49.862;9.908;2024-01-07T02:53:36;18.05;;;10.60;;
64875;SDS011;51369;49.862;9.908;2024-01-07T02:56:02;14.45;;;9.70;;
64875;SDS011;51369;49.862;9.908;2024-01-07T02:58:27;14.32;;;9.30;;
64875;SDS011;51369;49.862;9.908;2024-01-07T03:00:53;12.98;;;8.85;;
64875;SDS011;51369;49.862;9.908;2024-01-07T03:03:18;14.65;;;9.65;;
64875;SDS011;51369;49.862;9.908;2024-01-07T03:05:43;14.85;;;9.63;;
64875;SDS011;51369;49.862;9.908;2024-01-07T03:08:09;14.05;;;9.25;;
64875;SDS011;51369;49.862;9.908;2024-01-07T03:10:34;15.48;;;8.55;;
64875;SDS011;51369;49.862;9.908;2024-01-07T03:13:00;14.60;;;9.18;;
64875;SDS011;51369;49.862;9.908;2024-01-07T03:15:26;16.20;;;8.35;;
64875;SDS011;51369;49.862;9.908;2024-01-07T03:17:51;12.48;;;8.95;;
64875;SDS011;51369;49.862;9.908;2024-01-07T03:20:17;13.88;;;8.85;;
64875;SDS011;51369;49.862;9.908;2024-01-07T03:22:42;15.23;;;7.90;;
64875;SDS011;51369;49.862;9.908;2024-01-07T03:25:08;15.77;;;8.73;;
64875;SDS011;51369;49.862;9.908;2024-01-07T03:27:33;11.95;;;8.25;;
64875;SDS011;51369;49.862;9.908;2024-01-07T03:29:59;12.93;;;7.85;;
64875;SDS011;51369;49.862;9.908;2024-01-07T03:32:24;15.50;;;8.55;;
64875;SDS011;51369;49.862;9.908;2024-01-07T03:34:50;11.30;;;7.57;;
64875;SDS011;51369;49.862;9.908;2024-01-07T03:37:15;12.90;;;8.40;;
64875;SDS011;51369;49.862;9.908;2024-01-07T03:39:42;18.13;;;9.25;;
64875;SDS011;51369;49.862;9.908;2024-01-07T03:42:09;12.05;;;7.47;;
64875;SDS011;51369;49.862;9.908;2024-01-07T03:44:37;13.15;;;8.40;;
64875;SDS011;51369;49.862;9.908;2024-01-07T03:47:03;10.48;;;6.82;;
64875;SDS011;51369;49.862;9.908;2024-01-07T03:49:29;12.07;;;6.70;;
64875;SDS011;51369;49.862;9.908;2024-01-07T03:51:55;16.90;;;7.28;;
64875;SDS011;51369;49.862;9.908;2024-01-07T03:54:20;10.98;;;6.47;;
64875;SDS011;51369;49.862;9.908;2024-01-07T03:56:45;15.40;;;7.50;;
64875;SDS011;51369;49.862;9.908;2024-01-07T03:59:11;12.77;;;7.18;;
64875;SDS011;51369;49.862;9.908;2024-01-07T04:01:36;11.00;;;6.95;;
64875;SDS011;51369;49.862;9.908;2024-01-07T04:04:01;12.40;;;6.95;;
64875;SDS011;51369;49.862;9.908;2024-01-07T04:06:27;11.70;;;6.93;;
64875;SDS011;51369;49.862;9.908;2024-01-07T04:08:52;12.85;;;7.20;;
64875;SDS011;51369;49.862;9.908;2024-01-07T04:11:17;10.05;;;6.43;;
64875;SDS011;51369;49.862;9.908;2024-01-07T04:13:43;11.95;;;6.57;;
64875;SDS011;51369;49.862;9.908;2024-01-07T04:16:18;14.15;;;7.75;;
64875;SDS011;51369;49.862;9.908;2024-01-07T04:18:44;10.88;;;7.10;;
64875;SDS011;51369;49.862;9.908;2024-01-07T04:21:10;13.60;;;7.88;;
64875;SDS011;51369;49.862;9.908;2024-01-07T04:23:36;14.82;;;8.40;;
64875;SDS011;51369;49.862;9.908;2024-01-07T04:26:01;13.48;;;7.47;;
64875;SDS011;51369;49.862;9.908;2024-01-07T04:28:27;11.88;;;6.45;;
64875;SDS011;51369;49.862;9.908;2024-01-07T04:30:52;11.00;;;6.18;;
64875;SDS011;51369;49.862;9.908;2024-01-07T04:33:18;13.23;;;7.25;;
64875;SDS011;51369;49.862;9.908;2024-01-07T04:35:43;14.80;;;7.38;;
64875;SDS011;51369;49.862;9.908;2024-01-07T04:38:08;13.70;;;6.60;;
64875;SDS011;51369;49.862;9.908;2024-01-07T04:40:34;13.43;;;7.35;;
64875;SDS011;51369;49.862;9.908;2024-01-07T04:42:59;13.77;;;7.60;;
64875;SDS011;51369;49.862;9.908;2024-01-07T04:45:25;14.25;;;7.38;;
64875;SDS011;51369;49.862;9.908;2024-01-07T04:47:50;17.42;;;8.02;;
64875;SDS011;51369;49.862;9.908;2024-01-07T04:50:15;13.48;;;7.60;;
64875;SDS011;51369;49.862;9.908;2024-01-07T04:52:48;13.27;;;7.88;;
64875;SDS011;51369;49.862;9.908;2024-01-07T04:55:13;12.13;;;7.38;;
64875;SDS011;51369;49.862;9.908;2024-01-07T04:57:39;14.95;;;7.95;;
64875;SDS011;51369;49.862;9.908;2024-01-07T05:00:04;14.48;;;8.05;;
64875;SDS011;51369;49.862;9.908;2024-01-07T05:02:30;12.88;;;7.57;;
64875;SDS011;51369;49.862;9.908;2024-01-07T05:04:56;14.05;;;8.10;;
64875;SDS011;51369;49.862;9.908;2024-01-07T05:07:21;12.93;;;8.07;;
64875;SDS011;51369;49.862;9.908;2024-01-07T05:09:46;18.58;;;8.27;;
64875;SDS011;51369;49.862;9.908;2024-01-07T05:12:12;12.85;;;7.95;;
64875;SDS011;51369;49.862;9.908;2024-01-07T05:14:37;18.98;;;9.13;;
64875;SDS011;51369;49.862;9.908;2024-01-07T05:17:03;17.80;;;9.05;;
64875;SDS011;51369;49.862;9.908;2024-01-07T05:19:29;17.55;;;9.88;;
64875;SDS011;51369;49.862;9.908;2024-01-07T05:21:55;17.75;;;9.63;;
64875;SDS011;51369;49.862;9.908;2024-01-07T05:24:21;17.10;;;10.15;;
64875;SDS011;51369;49.862;9.908;2024-01-07T05:26:46;22.33;;;9.85;;
64875;SDS011;51369;49.862;9.908;2024-01-07T05:29:12;17.10;;;10.27;;
64875;SDS011;51369;49.862;9.908;2024-01-07T05:31:38;16.85;;;9.57;;
64875;SDS011;51369;49.862;9.908;2024-01-07T05:34:04;17.73;;;9.85;;
64875;SDS011;51369;49.862;9.908;2024-01-07T05:36:30;25.63;;;9.57;;
64875;SDS011;51369;49.862;9.908;2024-01-07T05:38:55;17.80;;;9.93;;
64875;SDS011;51369;49.862;9.908;2024-01-07T05:41:21;19.83;;;10.30;;
64875;SDS011;51369;49.862;9.908;2024-01-07T05:43:46;19.17;;;9.23;;
64875;SDS011;51369;49.862;9.908;2024-01-07T05:46:12;18.35;;;8.93;;
64875;SDS011;51369;49.862;9.908;2024-01-07T05:48:41;16.77;;;9.68;;
64875;SDS011;51369;49.862;9.908;2024-01-07T05:51:09;18.63;;;9.80;;
64875;SDS011;51369;49.862;9.908;2024-01-07T05:53:34;19.48;;;9.45;;
64875;SDS011;51369;49.862;9.908;2024-01-07T05:56:00;17.55;;;8.80;;
64875;SDS011;51369;49.862;9.908;2024-01-07T05:58:25;16.20;;;9.27;;
64875;SDS011;51369;49.862;9.908;2024-01-07T06:00:50;20.63;;;9.88;;
64875;SDS011;51369;49.862;9.908;2024-01-07T06:03:16;17.65;;;8.95;;
64875;SDS011;51369;49.862;9.908;2024-01-07T06:05:41;18.27;;;9.13;;
64875;SDS011;51369;49.862;9.908;2024-01-07T06:08:06;17.83;;;9.30;;
64875;SDS011;51369;49.862;9.908;2024-01-07T06:10:32;15.77;;;8.35;;
64875;SDS011;51369;49.862;9.908;2024-01-07T06:12:57;14.57;;;8.52;;
64875;SDS011;51369;49.862;9.908;2024-01-07T06:15:22;14.05;;;8.05;;
64875;SDS011;51369;49.862;9.908;2024-01-07T06:17:48;14.80;;;8.07;;
64875;SDS011;51369;49.862;9.908;2024-01-07T06:20:14;15.90;;;8.05;;
64875;SDS011;51369;49.862;9.908;2024-01-07T06:22:39;16.88;;;8.30;;
64875;SDS011;51369;49.862;9.908;2024-01-07T06:25:04;16.30;;;8.60;;
64875;SDS011;51369;49.862;9.908;2024-01-07T06:27:30;14.00;;;8.07;;
64875;SDS011;51369;49.862;9.908;2024-01-07T06:29:55;14.75;;;8.55;;
64875;SDS011;51369;49.862;9.908;2024-01-07T06:32:21;16.85;;;8.90;;
64875;SDS011;51369;49.862;9.908;2024-01-07T06:34:46;14.43;;;8.18;;
64875;SDS011;51369;49.862;9.908;2024-01-07T06:37:12;13.75;;;8.43;;
64875;SDS011;51369;49.862;9.908;2024-01-07T06:39:37;13.18;;;7.07;;
64875;SDS011;51369;49.862;9.908;2024-01-07T06:42:03;15.30;;;7.75;;
64875;SDS011;51369;49.862;9.908;2024-01-07T06:44:30;14.60;;;7.90;;
64875;SDS011;51369;49.862;9.908;2024-01-07T06:46:55;12.60;;;8.23;;
64875;SDS011;51369;49.862;9.908;2024-01-07T06:49:20;13.45;;;7.80;;
64875;SDS011;51369;49.862;9.908;2024-01-07T06:51:46;12.57;;;7.50;;
64875;SDS011;51369;49.862;9.908;2024-01-07T06:54:11;12.63;;;6.95;;
64875;SDS011;51369;49.862;9.908;2024-01-07T06:56:37;14.43;;;6.95;;
64875;SDS011;51369;49.862;9.908;2024-01-07T06:59:02;14.98;;;7.55;;
64875;SDS011;51369;49.862;9.908;2024-01-07T07:01:27;12.98;;;6.80;;
64875;SDS011;51369;49.862;9.908;2024-01-07T07:03:53;11.43;;;6.22;;
64875;SDS011;51369;49.862;9.908;2024-01-07T07:06:18;13.43;;;6.40;;
64875;SDS011;51369;49.862;9.908;2024-01-07T07:08:43;11.27;;;6.40;;
64875;SDS011;51369;49.862;9.908;2024-01-07T07:11:10;11.07;;;6.20;;
64875;SDS011;51369;49.862;9.908;2024-01-07T07:13:36;10.98;;;6.30;;
64875;SDS011;51369;49.862;9.908;2024-01-07T07:16:01;10.45;;;5.97;;
64875;SDS011;51369;49.862;9.908;2024-01-07T07:18:26;9.60;;;5.85;;
64875;SDS011;51369;49.862;9.908;2024-01-07T07:20:52;10.45;;;5.68;;
64875;SDS011;51369;49.862;9.908;2024-01-07T07:23:17;10.45;;;5.80;;
64875;SDS011;51369;49.862;9.908;2024-01-07T07:25:43;11.07;;;6.03;;
64875;SDS011;51369;49.862;9.908;2024-01-07T07:28:08;8.60;;;5.35;;
64875;SDS011;51369;49.862;9.908;2024-01-07T07:30:34;11.60;;;5.80;;
64875;SDS011;51369;49.862;9.908;2024-01-07T07:32:59;9.20;;;5.72;;
64875;SDS011;51369;49.862;9.908;2024-01-07T07:35:24;10.55;;;5.60;;
64875;SDS011;51369;49.862;9.908;2024-01-07T07:37:50;8.20;;;5.10;;
64875;SDS011;51369;49.862;9.908;2024-01-07T07:40:15;10.05;;;5.53;;
64875;SDS011;51369;49.862;9.908;2024-01-07T07:42:40;10.85;;;5.78;;
64875;SDS011;51369;49.862;9.908;2024-01-07T07:45:06;9.57;;;5.45;;
64875;SDS011;51369;49.862;9.908;2024-01-07T07:47:31;9.95;;;5.60;;
64875;SDS011;51369;49.862;9.908;2024-01-07T07:49:57;11.05;;;6.00;;
64875;SDS011;51369;49.862;9.908;2024-01-07T07:52:22;11.02;;;6.60;;
64875;SDS011;51369;49.862;9.908;2024-01-07T07:54:51;11.10;;;6.38;;
64875;SDS011;51369;49.862;9.908;2024-01-07T07:57:17;15.95;;;6.68;;
64875;SDS011;51369;49.862;9.908;2024-01-07T07:59:42;11.18;;;6.57;;
64875;SDS011;51369;49.862;9.908;2024-01-07T08:02:07;11.82;;;6.85;;
64875;SDS011;51369;49.862;9.908;2024-01-07T08:04:33;11.38;;;7.00;;
64875;SDS011;51369;49.862;9.908;2024-01-07T08:06:58;11.98;;;6.78;;
64875;SDS011;51369;49.862;9.908;2024-01-07T08:09:25;11.98;;;6.88;;
64875;SDS011;51369;49.862;9.908;2024-01-07T08:11:51;11.85;;;7.00;;
64875;SDS011;51369;49.862;9.908;2024-01-07T08:14:16;16.08;;;7.95;;
64875;SDS011;51369;49.862;9.908;2024-01-07T08:16:41;10.30;;;6.38;;
64875;SDS011;51369;49.862;9.908;2024-01-07T08:19:07;12.75;;;7.40;;
64875;SDS011;51369;49.862;9.908;2024-01-07T08:21:32;12.75;;;7.05;;
64875;SDS011;51369;49.862;9.908;2024-01-07T08:23:58;9.90;;;6.70;;
64875;SDS011;51369;49.862;9.908;2024-01-07T08:26:24;13.93;;;6.93;;
64875;SDS011;51369;49.862;9.908;2024-01-07T08:28:49;11.23;;;7.07;;
64875;SDS011;51369;49.862;9.908;2024-01-07T08:31:14;10.95;;;6.63;;
64875;SDS011;51369;49.862;9.908;2024-01-07T08:33:40;10.13;;;6.75;;
64875;SDS011;51369;49.862;9.908;2024-01-07T08:36:05;9.63;;;6.20;;
64875;SDS011;51369;49.862;9.908;2024-01-07T08:38:31;9.43;;;6.70;;
64875;SDS011;51369;49.862;9.908;2024-01-07T08:40:56;11.63;;;6.60;;
64875;SDS011;51369;49.862;9.908;2024-01-07T08:43:22;11.27;;;7.07;;
64875;SDS011;51369;49.862;9.908;2024-01-07T08:45:47;11.65;;;7.90;;
64875;SDS011;51369;49.862;9.908;2024-01-07T08:48:13;10.65;;;7.05;;
64875;SDS011;51369;49.862;9.908;2024-01-07T08:50:39;17.63;;;7.47;;
64875;SDS011;51369;49.862;9.908;2024-01-07T08:53:04;11.77;;;7.78;;
64875;SDS011;51369;49.862;9.908;2024-01-07T08:55:30;13.30;;;7.63;;
64875;SDS011;51369;49.862;9.908;2024-01-07T08:57:55;12.88;;;8.05;;
64875;SDS011;51369;49.862;9.908;2024-01-07T09:00:20;9.55;;;6.32;;
64875;SDS011;51369;49.862;9.908;2024-01-07T09:02:50;11.25;;;6.90;;
64875;SDS011;51369;49.862;9.908;2024-01-07T09:05:16;13.73;;;8.25;;
64875;SDS011;51369;49.862;9.908;2024-01-07T09:07:41;13.40;;;8.75;;
64875;SDS011;51369;49.862;9.908;2024-01-07T09:10:07;15.68;;;9.30;;
64875;SDS011;51369;49.862;9.908;2024-01-07T09:12:35;11.73;;;7.15;;
64875;SDS011;51369;49.862;9.908;2024-01-07T09:15:02;13.75;;;8.00;;
64875;SDS011;51369;49.862;9.908;2024-01-07T09:17:29;13.95;;;9.05;;
64875;SDS011;51369;49.862;9.908;2024-01-07T09:19:55;15.63;;;9.02;;
64875;SDS011;51369;49.862;9.908;2024-01-07T09:22:20;15.75;;;8.75;;
64875;SDS011;51369;49.862;9.908;2024-01-07T09:24:46;14.75;;;8.95;;
64875;SDS011;51369;49.862;9.908;2024-01-07T09:27:12;15.30;;;8.23;;
64875;SDS011;51369;49.862;9.908;2024-01-07T09:29:37;16.08;;;9.18;;
64875;SDS011;51369;49.862;9.908;2024-01-07T09:32:03;14.70;;;8.55;;
64875;SDS011;51369;49.862;9.908;2024-01-07T09:34:28;17.80;;;8.35;;
64875;SDS011;51369;49.862;9.908;2024-01-07T09:36:53;15.48;;;9.48;;
64875;SDS011;51369;49.862;9.908;2024-01-07T09:39:19;14.73;;;7.95;;
64875;SDS011;51369;49.862;9.908;2024-01-07T09:41:46;20.00;;;9.85;;
64875;SDS011;51369;49.862;9.908;2024-01-07T09:44:11;15.35;;;9.93;;
64875;SDS011;51369;49.862;9.908;2024-01-07T09:46:37;17.20;;;9.57;;
64875;SDS011;51369;49.862;9.908;2024-01-07T09:49:04;14.98;;;9.13;;
64875;SDS011;51369;49.862;9.908;2024-01-07T09:51:29;16.15;;;9.32;;
64875;SDS011;51369;49.862;9.908;2024-01-07T09:54:01;18.15;;;9.60;;
64875;SDS011;51369;49.862;9.908;2024-01-07T09:56:31;17.67;;;9.48;;
64875;SDS011;51369;49.862;9.908;2024-01-07T09:59:06;15.43;;;7.82;;
64875;SDS011;51369;49.862;9.908;2024-01-07T10:01:33;14.20;;;8.82;;
64875;SDS011;51369;49.862;9.908;2024-01-07T10:04:00;14.68;;;9.20;;
64875;SDS011;51369;49.862;9.908;2024-01-07T10:06:26;16.73;;;8.95;;
64875;SDS011;51369;49.862;9.908;2024-01-07T10:08:52;14.57;;;8.32;;
64875;SDS011;51369;49.862;9.908;2024-01-07T10:11:17;13.70;;;8.82;;
64875;SDS011;51369;49.862;9.908;2024-01-07T10:13:44;17.55;;;9.45;;
64875;SDS011;51369;49.862;9.908;2024-01-07T10:16:12;16.95;;;9.00;;
64875;SDS011;51369;49.862;9.908;2024-01-07T10:18:39;15.40;;;8.85;;
64875;SDS011;51369;49.862;9.908;2024-01-07T10:21:06;14.38;;;8.10;;
64875;SDS011;51369;49.862;9.908;2024-01-07T10:23:31;17.17;;;9.13;;
64875;SDS011;51369;49.862;9.908;2024-01-07T10:25:57;15.35;;;8.73;;
64875;SDS011;51369;49.862;9.908;2024-01-07T10:28:23;15.60;;;7.82;;
64875;SDS011;51369;49.862;9.908;2024-01-07T10:30:49;17.40;;;9.15;;
64875;SDS011;51369;49.862;9.908;2024-01-07T10:33:16;15.15;;;7.07;;
64875;SDS011;51369;49.862;9.908;2024-01-07T10:35:42;14.18;;;7.65;;
64875;SDS011;51369;49.862;9.908;2024-01-07T10:38:16;18.73;;;8.02;;
64875;SDS011;51369;49.862;9.908;2024-01-07T10:40:41;17.98;;;9.02;;
64875;SDS011;51369;49.862;9.908;2024-01-07T10:43:08;16.80;;;8.13;;
64875;SDS011;51369;49.862;9.908;2024-01-07T10:45:34;15.75;;;8.18;;
64875;SDS011;51369;49.862;9.908;2024-01-07T10:47:59;15.13;;;7.88;;
64875;SDS011;51369;49.862;9.908;2024-01-07T10:50:29;18.25;;;7.85;;
64875;SDS011;51369;49.862;9.908;2024-01-07T10:53:03;15.85;;;7.88;;
64875;SDS011;51369;49.862;9.908;2024-01-07T10:55:33;13.70;;;7.07;;
64875;SDS011;51369;49.862;9.908;2024-01-07T10:58:01;11.65;;;7.18;;
64875;SDS011;51369;49.862;9.908;2024-01-07T11:00:28;15.43;;;7.53;;
64875;SDS011;51369;49.862;9.908;2024-01-07T11:03:13;12.73;;;6.90;;
64875;SDS011;51369;49.862;9.908;2024-01-07T11:08:25;13.57;;;7.70;;
64875;SDS011;51369;49.862;9.908;2024-01-07T11:11:16;14.75;;;7.03;;
64875;SDS011;51369;49.862;9.908;2024-01-07T11:13:49;11.82;;;7.35;;
64875;SDS011;51369;49.862;9.908;2024-01-07T11:16:14;12.13;;;7.15;;
64875;SDS011;51369;49.862;9.908;2024-01-07T11:19:06;12.05;;;7.57;;
64875;SDS011;51369;49.862;9.908;2024-01-07T11:21:32;12.45;;;7.10;;
64875;SDS011;51369;49.862;9.908;2024-01-07T11:23:57;14.55;;;7.10;;
64875;SDS011;51369;49.862;9.908;2024-01-07T11:26:22;14.88;;;7.03;;
64875;SDS011;51369;49.862;9.908;2024-01-07T11:28:49;13.80;;;7.03;;
64875;SDS011;51369;49.862;9.908;2024-01-07T11:31:17;10.98;;;7.47;;
64875;SDS011;51369;49.862;9.908;2024-01-07T11:33:47;18.45;;;7.45;;
64875;SDS011;51369;49.862;9.908;2024-01-07T11:36:15;13.93;;;8.20;;
64875;SDS011;51369;49.862;9.908;2024-01-07T11:38:42;13.77;;;7.80;;
64875;SDS011;51369;49.862;9.908;2024-01-07T11:41:09;13.48;;;7.82;;
64875;SDS011;51369;49.862;9.908;2024-01-07T11:43:36;12.57;;;7.35;;
64875;SDS011;51369;49.862;9.908;2024-01-07T11:46:01;13.10;;;7.47;;
64875;SDS011;51369;49.862;9.908;2024-01-07T11:48:26;11.73;;;7.20;;
64875;SDS011;51369;49.862;9.908;2024-01-07T11:50:52;12.40;;;7.55;;
64875;SDS011;51369;49.862;9.908;2024-01-07T11:53:18;15.00;;;8.20;;
64875;SDS011;51369;49.862;9.908;2024-01-07T11:55:44;11.13;;;6.93;;
64875;SDS011;51369;49.862;9.908;2024-01-07T11:58:10;15.15;;;8.48;;
64875;SDS011;51369;49.862;9.908;2024-01-07T12:00:35;18.15;;;9.15;;
64875;SDS011;51369;49.862;9.908;2024-01-07T12:03:01;16.50;;;8.90;;
64875;SDS011;51369;49.862;9.908;2024-01-07T12:05:27;13.93;;;7.90;;
64875;SDS011;51369;49.862;9.908;2024-01-07T12:07:53;13.18;;;7.68;;
64875;SDS011;51369;49.862;9.908;2024-01-07T12:10:19;12.50;;;6.82;;
64875;SDS011;51369;49.862;9.908;2024-01-07T12:12:44;13.93;;;7.75;;
64875;SDS011;51369;49.862;9.908;2024-01-07T12:15:10;15.45;;;8.32;;
64875;SDS011;51369;49.862;9.908;2024-01-07T12:17:39;13.80;;;7.93;;
64875;SDS011;51369;49.862;9.908;2024-01-07T12:20:05;16.90;;;6.65;;
64875;SDS011;51369;49.862;9.908;2024-01-07T12:22:32;14.23;;;7.05;;
64875;SDS011;51369;49.862;9.908;2024-01-07T12:25:07;10.48;;;6.82;;
64875;SDS011;51369;49.862;9.908;2024-01-07T12:27:33;12.75;;;7.10;;
64875;SDS011;51369;49.862;9.908;2024-01-07T12:30:00;13.43;;;6.72;;
64875;SDS011;51369;49.862;9.908;2024-01-07T12:32:26;10.60;;;6.88;;
64875;SDS011;51369;49.862;9.908;2024-01-07T12:34:52;11.25;;;6.60;;
64875;SDS011;51369;49.862;9.908;2024-01-07T12:37:18;14.07;;;7.13;;
64875;SDS011;51369;49.862;9.908;2024-01-07T12:39:43;14.15;;;6.47;;
64875;SDS011;51369;49.862;9.908;2024-01-07T12:42:08;13.93;;;7.03;;
64875;SDS011;51369;49.862;9.908;2024-01-07T12:44:36;12.40;;;7.10;;
64875;SDS011;51369;49.862;9.908;2024-01-07T12:47:01;10.98;;;6.50;;
64875;SDS011;51369;49.862;9.908;2024-01-07T12:49:28;14.32;;;7.53;;
64875;SDS011;51369;49.862;9.908;2024-01-07T12:51:53;9.55;;;6.03;;
64875;SDS011;51369;49.862;9.908;2024-01-07T12:54:19;10.13;;;6.40;;
64875;SDS011;51369;49.862;9.908;2024-01-07T12:56:44;8.68;;;5.28;;
64875;SDS011;51369;49.862;9.908;2024-01-07T12:59:10;12.00;;;6.13;;
64875;SDS011;51369;49.862;9.908;2024-01-07T13:01:35;10.50;;;6.07;;
64875;SDS011;51369;49.862;9.908;2024-01-07T13:04:01;11.60;;;7.03;;
64875;SDS011;51369;49.862;9.908;2024-01-07T13:06:27;11.65;;;6.07;;
64875;SDS011;51369;49.862;9.908;2024-01-07T13:08:53;10.52;;;5.88;;
64875;SDS011;51369;49.862;9.908;2024-01-07T13:11:20;12.82;;;7.22;;
64875;SDS011;51369;49.862;9.908;2024-01-07T13:13:45;9.82;;;5.50;;
64875;SDS011;51369;49.862;9.908;2024-01-07T13:16:11;11.57;;;6.22;;
64875;SDS011;51369;49.862;9.908;2024-01-07T13:18:37;9.40;;;5.18;;
64875;SDS011;51369;49.862;9.908;2024-01-07T13:21:03;10.88;;;6.03;;
64875;SDS011;51369;49.862;9.908;2024-01-07T13:23:28;9.68;;;5.55;;
64875;SDS011;51369;49.862;9.908;2024-01-07T13:25:54;13.98;;;5.97;;
64875;SDS011;51369;49.862;9.908;2024-01-07T13:28:21;11.13;;;6.97;;
64875;SDS011;51369;49.862;9.908;2024-01-07T13:30:46;7.43;;;5.13;;
64875;SDS011;51369;49.862;9.908;2024-01-07T13:33:11;12.10;;;6.40;;
64875;SDS011;51369;49.862;9.908;2024-01-07T13:35:37;9.68;;;5.43;;
64875;SDS011;51369;49.862;9.908;2024-01-07T13:38:02;10.35;;;5.15;;
64875;SDS011;51369;49.862;9.908;2024-01-07T13:40:27;9.00;;;5.45;;
64875;SDS011;51369;49.862;9.908;2024-01-07T13:42:53;9.75;;;4.63;;
64875;SDS011;51369;49.862;9.908;2024-01-07T13:45:19;9.30;;;5.63;;
64875;SDS011;51369;49.862;9.908;2024-01-07T13:47:48;9.75;;;4.20;;
64875;SDS011;51369;49.862;9.908;2024-01-07T13:50:14;10.82;;;5.65;;
64875;SDS011;51369;49.862;9.908;2024-01-07T13:52:39;13.45;;;5.32;;
64875;SDS011;51369;49.862;9.908;2024-01-07T13:55:06;10.40;;;4.88;;
64875;SDS011;51369;49.862;9.908;2024-01-07T13:57:35;14.07;;;5.68;;
64875;SDS011;51369;49.862;9.908;2024-01-07T14:00:01;7.70;;;4.95;;
64875;SDS011;51369;49.862;9.908;2024-01-07T14:02:33;11.15;;;5.28;;
64875;SDS011;51369;49.862;9.908;2024-01-07T14:04:59;7.32;;;4.75;;
64875;SDS011;51369;49.862;9.908;2024-01-07T14:07:24;8.07;;;4.70;;
64875;SDS011;51369;49.862;9.908;2024-01-07T14:09:51;10.82;;;5.25;;
64875;SDS011;51369;49.862;9.908;2024-01-07T14:12:17;12.95;;;5.50;;
64875;SDS011;51369;49.862;9.908;2024-01-07T14:14:42;9.20;;;4.30;;
64875;SDS011;51369;49.862;9.908;2024-01-07T14:17:08;10.02;;;5.13;;
64875;SDS011;51369;49.862;9.908;2024-01-07T14:19:33;10.45;;;5.28;;
64875;SDS011;51369;49.862;9.908;2024-01-07T14:21:58;10.30;;;5.35;;
64875;SDS011;51369;49.862;9.908;2024-01-07T14:24:24;9.68;;;4.80;;
64875;SDS011;51369;49.862;9.908;2024-01-07T14:26:49;8.48;;;4.47;;
64875;SDS011;51369;49.862;9.908;2024-01-07T14:29:15;11.40;;;5.32;;